Time;durP1;ratioP1;P1;durP2;ratioP2;P2;SDS_P1;SDS_P2;PMS_P1;PMS_P2;Temp;Humidity;BMP_temperature;BMP_pressure;BME280_temperature;BME280_humidity;BME280_pressure;Samples;Min_cycle;Max_cycle;Signal;HPM_P1;HPM_P2
2024/01/10 00:02:22;;;;;;;28.90;18.93;;;-4.50;99.90;;;;;;5029202;28;20479;-61
2024/01/10 00:04:50;;;;;;;26.20;18.97;;;-4.50;99.90;;;;;;5028388;28;20889;-60
2024/01/10 00:07:18;;;;;;;29.83;18.93;;;-4.40;99.90;;;;;;5029638;28;20478;-61
2024/01/10 00:09:46;;;;;;;26.03;17.23;;;-4.40;99.90;;;;;;5025126;28;20491;-61
2024/01/10 00:12:16;;;;;;;23.23;15.40;;;-4.40;99.90;;;;;;5028933;28;20605;-60
2024/01/10 00:14:44;;;;;;;24.50;16.17;;;-4.40;99.90;;;;;;5033146;28;20861;-61
2024/01/10 00:17:12;;;;;;;27.03;15.33;;;-4.40;99.90;;;;;;5025633;28;20474;-60
2024/01/10 00:19:40;;;;;;;21.50;15.23;;;-4.30;99.90;;;;;;5032194;28;20495;-61
2024/01/10 00:22:08;;;;;;;32.53;16.60;;;-4.30;99.90;;;;;;5030770;28;20478;-59
2024/01/10 00:24:36;;;;;;;29.27;15.77;;;-4.30;99.90;;;;;;5033101;28;21003;-60
2024/01/10 00:27:05;;;;;;;24.93;15.13;;;-4.20;99.90;;;;;;5031143;28;20522;-60
2024/01/10 00:29:34;;;;;;;29.83;16.80;;;-4.20;99.90;;;;;;5033702;28;20577;-59
2024/01/10 00:32:03;;;;;;;26.60;15.80;;;-4.20;99.90;;;;;;5028675;28;20479;-60
2024/01/10 00:34:31;;;;;;;25.60;15.57;;;-4.20;99.90;;;;;;5025918;28;20716;-64
2024/01/10 00:36:59;;;;;;;23.80;15.00;;;-4.20;99.90;;;;;;5025314;28;20470;-60
2024/01/10 00:39:27;;;;;;;25.73;14.67;;;-4.20;99.90;;;;;;5026855;28;20494;-60
2024/01/10 00:41:55;;;;;;;26.10;15.10;;;-4.20;99.90;;;;;;5024162;28;21029;-60
2024/01/10 00:44:23;;;;;;;21.43;13.53;;;-4.10;99.90;;;;;;5025774;28;20589;-60
2024/01/10 00:46:53;;;;;;;25.87;14.70;;;-4.10;99.90;;;;;;5027868;28;23627;-60
2024/01/10 00:49:21;;;;;;;25.83;14.10;;;-4.10;99.90;;;;;;5026971;28;20495;-63
2024/01/10 00:51:49;;;;;;;22.23;13.87;;;-4.10;99.90;;;;;;5034181;28;20558;-62
2024/01/10 00:54:17;;;;;;;22.17;14.07;;;-4.00;99.90;;;;;;5032775;28;20532;-62
2024/01/10 00:56:45;;;;;;;19.63;12.83;;;-4.00;99.90;;;;;;5029516;28;20891;-63
2024/01/10 00:59:13;;;;;;;24.27;14.60;;;-4.10;99.90;;;;;;5035929;28;20477;-63
2024/01/10 01:01:41;;;;;;;24.20;13.97;;;-4.10;99.90;;;;;;5028743;28;20502;-62
2024/01/10 01:04:10;;;;;;;27.03;15.07;;;-4.00;99.90;;;;;;5027958;28;20476;-63
2024/01/10 01:06:38;;;;;;;22.43;15.13;;;-4.00;99.90;;;;;;5030059;28;20561;-63
2024/01/10 01:09:06;;;;;;;24.80;13.30;;;-4.00;99.90;;;;;;5030050;28;20517;-63
2024/01/10 01:11:34;;;;;;;19.90;13.80;;;-4.00;99.90;;;;;;5022431;28;20834;-63
2024/01/10 01:14:03;;;;;;;22.57;14.33;;;-4.00;99.90;;;;;;5027438;28;20501;-65
2024/01/10 01:16:31;;;;;;;24.60;13.90;;;-4.00;99.90;;;;;;5027197;28;21166;-62
2024/01/10 01:18:59;;;;;;;22.90;14.63;;;-3.90;99.90;;;;;;5029521;28;20477;-63
2024/01/10 01:21:28;;;;;;;19.53;13.40;;;-3.90;99.90;;;;;;5029880;28;21979;-63
2024/01/10 01:23:56;;;;;;;21.27;13.80;;;-4.00;99.90;;;;;;5026891;28;20601;-64
2024/01/10 01:26:24;;;;;;;21.93;13.13;;;-3.90;99.90;;;;;;5031849;28;20904;-65
2024/01/10 01:28:52;;;;;;;20.03;13.13;;;-3.90;99.90;;;;;;5030296;28;20470;-63
2024/01/10 01:31:20;;;;;;;22.23;13.40;;;-3.90;99.90;;;;;;5028256;28;20490;-64
2024/01/10 01:33:48;;;;;;;24.30;13.37;;;-3.80;99.90;;;;;;5028444;28;20483;-64
2024/01/10 01:36:16;;;;;;;21.43;14.13;;;-3.90;99.90;;;;;;5028384;28;20865;-63
2024/01/10 01:38:46;;;;;;;22.73;14.00;;;-3.80;99.90;;;;;;5025599;28;21253;-63
2024/01/10 01:41:15;;;;;;;24.10;15.40;;;-3.80;99.90;;;;;;5030176;28;21301;-65
2024/01/10 01:43:44;;;;;;;22.43;14.77;;;-3.80;99.90;;;;;;5025750;28;20490;-65
2024/01/10 01:46:12;;;;;;;24.40;14.40;;;-3.80;99.90;;;;;;5030373;28;21235;-63
2024/01/10 01:48:41;;;;;;;27.80;15.77;;;-3.70;99.90;;;;;;5028370;28;20463;-63
2024/01/10 01:51:12;;;;;;;22.93;13.87;;;-3.70;99.90;;;;;;5043398;28;20891;-66
2024/01/10 01:53:41;;;;;;;23.27;14.47;;;-3.70;99.90;;;;;;5049827;28;20502;-69
2024/01/10 01:56:11;;;;;;;22.93;14.70;;;-3.70;99.90;;;;;;5053905;28;20466;-65
2024/01/10 01:58:40;;;;;;;21.43;13.63;;;-3.70;99.90;;;;;;5052742;28;20463;-64
2024/01/10 02:01:08;;;;;;;21.90;13.93;;;-3.70;99.90;;;;;;5040395;28;20966;-64
2024/01/10 02:03:37;;;;;;;19.97;13.10;;;-3.70;99.90;;;;;;5034709;28;21060;-63
2024/01/10 02:06:05;;;;;;;18.87;12.07;;;-3.60;99.90;;;;;;5031092;28;20971;-64
2024/01/10 02:08:34;;;;;;;19.70;12.43;;;-3.70;99.90;;;;;;5031450;28;21160;-63
2024/01/10 02:11:03;;;;;;;17.83;11.47;;;-3.70;99.90;;;;;;5040720;28;20493;-65
2024/01/10 02:13:33;;;;;;;21.30;13.30;;;-3.70;99.90;;;;;;5028933;28;20490;-64
2024/01/10 02:16:03;;;;;;;20.10;11.63;;;-3.60;99.90;;;;;;5029953;28;20533;-63
2024/01/10 02:18:31;;;;;;;20.33;13.10;;;-3.60;99.90;;;;;;5029073;28;20475;-63
2024/01/10 02:20:59;;;;;;;16.40;11.63;;;-3.60;99.90;;;;;;5027450;28;20495;-63
2024/01/10 02:23:27;;;;;;;17.80;12.57;;;-3.60;99.90;;;;;;5025797;28;20478;-63
2024/01/10 02:25:57;;;;;;;20.10;12.10;;;-3.60;99.90;;;;;;5028880;28;20967;-63
2024/01/10 02:28:25;;;;;;;20.63;12.53;;;-3.60;99.90;;;;;;5024345;28;20471;-63
2024/01/10 02:30:55;;;;;;;17.50;12.03;;;-3.60;99.90;;;;;;5028540;28;20584;-63
2024/01/10 02:33:23;;;;;;;16.40;10.87;;;-3.60;99.90;;;;;;5033525;28;20493;-63
2024/01/10 02:35:51;;;;;;;16.17;10.47;;;-3.60;99.90;;;;;;5031222;28;20474;-63
2024/01/10 02:38:21;;;;;;;17.83;12.13;;;-3.60;99.90;;;;;;5027836;28;20551;-65
2024/01/10 02:40:49;;;;;;;17.40;11.10;;;-3.60;99.90;;;;;;5030765;28;20497;-63
2024/01/10 02:43:18;;;;;;;14.27;10.57;;;-3.60;99.90;;;;;;5026030;28;20506;-64
2024/01/10 02:45:46;;;;;;;16.43;10.90;;;-3.60;99.90;;;;;;5031057;28;20557;-63
2024/01/10 02:48:14;;;;;;;17.13;11.67;;;-3.60;99.90;;;;;;5034757;28;20540;-63
2024/01/10 02:50:42;;;;;;;17.83;11.30;;;-3.60;99.90;;;;;;5031305;28;20838;-63
2024/01/10 02:53:10;;;;;;;16.57;12.00;;;-3.60;99.90;;;;;;5036291;28;20514;-64
2024/01/10 02:55:39;;;;;;;16.70;11.33;;;-3.50;99.90;;;;;;5036256;28;20471;-63
2024/01/10 02:58:07;;;;;;;18.17;12.80;;;-3.50;99.90;;;;;;5034762;28;20545;-63
2024/01/10 03:00:37;;;;;;;19.17;10.37;;;-3.50;99.90;;;;;;5028223;28;20597;-63
2024/01/10 03:03:05;;;;;;;16.10;11.63;;;-3.50;99.90;;;;;;5024202;28;21004;-63
2024/01/10 03:05:34;;;;;;;16.97;11.27;;;-3.40;99.90;;;;;;5029833;28;20489;-63
2024/01/10 03:08:02;;;;;;;18.90;11.30;;;-3.50;99.90;;;;;;5026432;28;20518;-65
2024/01/10 03:10:30;;;;;;;18.03;11.80;;;-3.40;99.90;;;;;;5034140;28;20491;-63
2024/01/10 03:12:58;;;;;;;16.47;12.10;;;-3.40;99.90;;;;;;5026583;28;20514;-63
2024/01/10 03:15:26;;;;;;;17.97;12.07;;;-3.40;99.90;;;;;;5034408;28;20470;-63
2024/01/10 03:17:55;;;;;;;18.07;12.10;;;-3.40;99.90;;;;;;5031236;28;21046;-63
2024/01/10 03:20:24;;;;;;;21.63;13.03;;;-3.40;99.90;;;;;;5026622;28;21294;-63
2024/01/10 03:22:52;;;;;;;17.13;11.60;;;-3.30;99.90;;;;;;5032084;28;20573;-63
2024/01/10 03:25:20;;;;;;;17.93;11.83;;;-3.30;99.90;;;;;;5037670;28;20467;-63
2024/01/10 03:27:48;;;;;;;19.57;12.17;;;-3.30;99.90;;;;;;5039367;28;20554;-63
2024/01/10 03:30:18;;;;;;;17.93;11.60;;;-3.30;99.90;;;;;;5042305;28;20502;-64
2024/01/10 03:32:46;;;;;;;16.20;11.23;;;-3.20;99.90;;;;;;5051754;28;20482;-64
2024/01/10 03:35:16;;;;;;;16.37;11.40;;;-3.20;99.90;;;;;;5052227;28;20498;-63
2024/01/10 03:37:44;;;;;;;20.37;12.43;;;-3.20;99.90;;;;;;5051272;28;20470;-64
2024/01/10 03:40:12;;;;;;;20.50;13.10;;;-3.20;99.90;;;;;;5046159;28;20498;-63
2024/01/10 03:42:40;;;;;;;19.87;13.67;;;-3.10;99.90;;;;;;5050447;28;20556;-66
2024/01/10 03:45:08;;;;;;;23.50;12.83;;;-3.10;99.90;;;;;;5052130;28;20473;-65
2024/01/10 03:47:37;;;;;;;20.13;13.23;;;-3.10;99.90;;;;;;5045845;28;20508;-63
2024/01/10 03:50:06;;;;;;;24.93;14.77;;;-3.10;99.90;;;;;;5046433;28;20487;-63
2024/01/10 03:52:36;;;;;;;19.40;13.90;;;-3.10;99.90;;;;;;5046584;28;20518;-63
2024/01/10 03:55:04;;;;;;;23.37;14.60;;;-3.10;99.90;;;;;;5047390;28;20472;-63
2024/01/10 03:57:32;;;;;;;23.53;14.63;;;-3.00;99.90;;;;;;5037714;28;20478;-63
2024/01/10 04:00:00;;;;;;;23.13;15.17;;;-3.00;99.90;;;;;;5039330;28;20526;-63
2024/01/10 04:02:28;;;;;;;25.63;16.27;;;-3.00;99.90;;;;;;5034484;28;20493;-63
2024/01/10 04:04:56;;;;;;;25.77;15.93;;;-3.00;99.90;;;;;;5037309;28;20502;-64
2024/01/10 04:07:24;;;;;;;25.47;16.03;;;-3.00;99.90;;;;;;5037692;28;21082;-63
2024/01/10 04:09:54;;;;;;;26.93;16.83;;;-3.10;99.90;;;;;;5038201;28;20574;-63
2024/01/10 04:12:22;;;;;;;23.30;15.07;;;-3.10;99.90;;;;;;5036002;28;20537;-64
2024/01/10 04:14:50;;;;;;;24.17;16.30;;;-3.10;99.90;;;;;;5038549;28;20475;-63
2024/01/10 04:17:18;;;;;;;26.87;14.73;;;-3.00;99.90;;;;;;5037913;28;20547;-66
2024/01/10 04:19:46;;;;;;;22.57;15.43;;;-3.00;99.90;;;;;;5037829;28;20491;-64
2024/01/10 04:22:14;;;;;;;27.93;15.30;;;-3.00;99.90;;;;;;5034764;28;20490;-65
2024/01/10 04:24:42;;;;;;;25.00;15.53;;;-3.00;99.90;;;;;;5038339;28;21051;-64
2024/01/10 04:27:11;;;;;;;22.63;15.83;;;-2.90;99.90;;;;;;5038568;28;20566;-64
2024/01/10 04:29:39;;;;;;;24.47;13.83;;;-2.90;99.90;;;;;;5038292;28;20582;-63
2024/01/10 04:32:08;;;;;;;22.13;14.70;;;-2.90;99.90;;;;;;5037008;28;20545;-63
2024/01/10 04:34:36;;;;;;;21.90;13.97;;;-2.90;99.90;;;;;;5037584;28;20542;-65
2024/01/10 04:37:06;;;;;;;21.73;13.77;;;-2.90;99.90;;;;;;5035673;28;20471;-63
2024/01/10 04:39:35;;;;;;;19.77;13.40;;;-2.90;99.90;;;;;;5035580;28;20526;-63
2024/01/10 04:42:03;;;;;;;16.73;11.17;;;-2.80;99.90;;;;;;5036701;28;20994;-63
2024/01/10 04:44:33;;;;;;;17.80;11.80;;;-2.80;99.90;;;;;;5037494;28;20550;-63
2024/01/10 04:47:00;;;;;;;17.10;12.87;;;-2.80;99.90;;;;;;5035774;28;20502;-63
2024/01/10 04:49:29;;;;;;;16.60;11.30;;;-2.80;99.90;;;;;;5030721;28;20518;-63
2024/01/10 04:51:57;;;;;;;15.10;10.60;;;-2.70;99.90;;;;;;5036136;28;20561;-63
2024/01/10 04:54:25;;;;;;;13.80;9.90;;;-2.70;99.90;;;;;;5036377;28;20474;-63
2024/01/10 04:56:53;;;;;;;13.03;10.03;;;-2.70;99.90;;;;;;5033385;28;20470;-63
2024/01/10 04:59:21;;;;;;;15.13;11.17;;;-2.60;99.90;;;;;;5033813;28;20490;-63
2024/01/10 05:01:52;;;;;;;15.37;10.50;;;-2.60;99.90;;;;;;5031618;28;20528;-65
2024/01/10 05:04:20;;;;;;;13.70;10.87;;;-2.60;99.90;;;;;;5037461;28;20486;-63
2024/01/10 05:06:48;;;;;;;15.30;10.70;;;-2.60;99.90;;;;;;5035360;28;20541;-63
2024/01/10 05:09:16;;;;;;;14.40;10.03;;;-2.60;99.90;;;;;;5037273;28;20541;-63
2024/01/10 05:11:47;;;;;;;12.80;9.80;;;-2.60;99.90;;;;;;5035397;28;20823;-63
2024/01/10 05:14:15;;;;;;;13.43;9.73;;;-2.60;99.90;;;;;;5035572;28;20467;-64
2024/01/10 05:16:43;;;;;;;13.43;9.90;;;-2.60;99.90;;;;;;5038028;28;20478;-63
2024/01/10 05:19:12;;;;;;;17.53;9.93;;;-2.50;99.90;;;;;;5033167;28;20471;-63
2024/01/10 05:21:41;;;;;;;13.27;9.40;;;-2.50;99.90;;;;;;5031505;28;20478;-64
2024/01/10 05:24:09;;;;;;;13.73;10.13;;;-2.50;99.90;;;;;;5036074;28;20528;-66
2024/01/10 05:26:37;;;;;;;11.90;9.63;;;-2.50;99.90;;;;;;5036639;28;21050;-64
2024/01/10 05:29:05;;;;;;;13.80;8.80;;;-2.50;99.90;;;;;;5036291;28;20467;-64
2024/01/10 05:31:33;;;;;;;15.17;9.70;;;-2.50;99.90;;;;;;5031313;28;20479;-64
2024/01/10 05:34:01;;;;;;;11.13;8.57;;;-2.50;99.90;;;;;;5033590;28;20564;-60
2024/01/10 05:36:30;;;;;;;11.60;8.57;;;-2.50;99.90;;;;;;5036445;28;20463;-63
2024/01/10 05:38:58;;;;;;;13.83;9.37;;;-2.50;99.90;;;;;;5036108;28;20509;-63
2024/01/10 05:41:26;;;;;;;14.40;9.40;;;-2.50;99.90;;;;;;5030852;28;20503;-63
2024/01/10 05:43:55;;;;;;;10.87;8.20;;;-2.50;99.90;;;;;;5030903;28;20505;-64
2024/01/10 05:46:23;;;;;;;13.20;8.80;;;-2.50;99.90;;;;;;5030497;28;20466;-64
2024/01/10 05:48:51;;;;;;;15.03;8.57;;;-2.50;99.90;;;;;;5034566;28;20468;-63
2024/01/10 05:51:19;;;;;;;10.20;8.17;;;-2.50;99.90;;;;;;5033325;28;20572;-63
2024/01/10 05:53:48;;;;;;;12.07;8.93;;;-2.50;99.90;;;;;;5031117;28;20595;-64
2024/01/10 05:56:16;;;;;;;12.80;8.80;;;-2.60;99.90;;;;;;5035824;28;20473;-64
2024/01/10 05:58:44;;;;;;;12.43;7.70;;;-2.60;99.90;;;;;;5031766;28;20467;-63
2024/01/10 06:01:12;;;;;;;10.40;7.47;;;-2.60;99.90;;;;;;5034155;28;20522;-63
2024/01/10 06:03:41;;;;;;;9.63;7.20;;;-2.60;99.90;;;;;;5022323;28;20490;-63
2024/01/10 06:06:10;;;;;;;10.90;7.70;;;-2.60;99.90;;;;;;5037618;28;20541;-63
2024/01/10 06:08:38;;;;;;;11.07;7.67;;;-2.60;99.90;;;;;;5034963;28;21605;-63
2024/01/10 06:11:09;;;;;;;10.33;7.20;;;-2.60;99.90;;;;;;5036653;28;20903;-64
2024/01/10 06:13:38;;;;;;;9.17;6.70;;;-2.60;99.90;;;;;;5036166;28;20569;-64
2024/01/10 06:16:20;;;;;;;9.43;6.83;;;-2.60;99.90;;;;;;5035351;28;20564;-63
2024/01/10 06:18:48;;;;;;;9.97;7.10;;;-2.60;99.90;;;;;;5037029;28;20842;-63
2024/01/10 06:21:17;;;;;;;9.13;6.90;;;-2.50;99.90;;;;;;5027876;28;20482;-62
2024/01/10 06:23:45;;;;;;;10.87;8.10;;;-2.50;99.90;;;;;;5035610;28;20546;-59
2024/01/10 06:26:14;;;;;;;11.60;8.37;;;-2.50;99.90;;;;;;5038297;28;20498;-60
2024/01/10 06:28:43;;;;;;;12.20;8.60;;;-2.50;99.90;;;;;;5034375;28;20576;-61
2024/01/10 06:31:11;;;;;;;10.27;7.33;;;-2.50;99.90;;;;;;5032182;28;20489;-61
2024/01/10 06:33:40;;;;;;;9.10;7.30;;;-2.50;99.90;;;;;;5035259;28;20479;-62
2024/01/10 06:36:08;;;;;;;12.20;9.13;;;-2.50;99.90;;;;;;5038043;28;20471;-61
2024/01/10 06:38:36;;;;;;;13.80;7.90;;;-2.50;99.90;;;;;;5035898;28;20471;-60
2024/01/10 06:41:09;;;;;;;11.63;7.93;;;-2.50;99.90;;;;;;5036602;28;20577;-61
2024/01/10 06:43:38;;;;;;;11.87;8.13;;;-2.50;99.90;;;;;;5031704;28;20485;-62
2024/01/10 06:46:07;;;;;;;11.87;8.77;;;-2.50;99.90;;;;;;5033153;28;20484;-61
2024/01/10 06:48:35;;;;;;;10.67;8.37;;;-2.50;99.90;;;;;;5030768;28;20470;-61
2024/01/10 06:51:11;;;;;;;11.83;8.80;;;-2.50;99.90;;;;;;5034125;28;20534;-62
2024/01/10 06:53:39;;;;;;;11.00;7.73;;;-2.40;99.90;;;;;;5034360;28;20497;-61
2024/01/10 06:56:09;;;;;;;10.90;8.47;;;-2.40;99.90;;;;;;5038998;28;20470;-62
2024/01/10 06:58:39;;;;;;;10.13;8.07;;;-2.40;99.90;;;;;;5038262;28;20486;-61
2024/01/10 07:01:13;;;;;;;11.67;8.50;;;-2.40;99.90;;;;;;5038469;28;20498;-61
2024/01/10 07:03:42;;;;;;;12.20;8.30;;;-2.40;99.90;;;;;;5032612;28;20487;-60
2024/01/10 07:06:10;;;;;;;10.70;9.10;;;-2.40;99.90;;;;;;5039893;28;20468;-61
2024/01/10 07:08:42;;;;;;;8.77;7.43;;;-2.30;99.90;;;;;;5051629;28;20467;-60
2024/01/10 07:11:11;;;;;;;13.40;9.03;;;-2.30;99.90;;;;;;5052257;28;20518;-59
2024/01/10 07:13:41;;;;;;;10.13;8.50;;;-2.30;99.90;;;;;;5053549;28;20513;-60
2024/01/10 07:16:10;;;;;;;11.10;8.90;;;-2.30;99.90;;;;;;5051599;28;20554;-61
2024/01/10 07:18:38;;;;;;;13.40;9.67;;;-2.30;99.90;;;;;;5052919;28;20529;-62
2024/01/10 07:21:06;;;;;;;9.60;8.10;;;-2.30;99.90;;;;;;5038519;28;20486;-61
2024/01/10 07:23:35;;;;;;;10.40;8.60;;;-2.30;99.90;;;;;;5038805;28;20517;-61
2024/01/10 07:26:03;;;;;;;12.27;9.23;;;-2.30;99.90;;;;;;5036928;28;20483;-61
2024/01/10 07:28:32;;;;;;;12.07;8.70;;;-2.40;99.90;;;;;;5037121;28;20471;-61
2024/01/10 07:31:02;;;;;;;13.03;8.97;;;-2.40;99.90;;;;;;5035415;28;20892;-61
2024/01/10 07:33:31;;;;;;;11.80;9.00;;;-2.40;99.90;;;;;;5037185;28;20555;-61
2024/01/10 07:35:59;;;;;;;11.83;9.20;;;-2.40;99.90;;;;;;5039391;28;20846;-62
2024/01/10 07:38:27;;;;;;;10.90;8.63;;;-2.40;99.90;;;;;;5035846;28;20569;-62
2024/01/10 07:40:55;;;;;;;11.07;9.20;;;-2.30;99.90;;;;;;5037355;28;20924;-61
2024/01/10 07:43:23;;;;;;;10.60;8.90;;;-2.30;99.90;;;;;;5032141;28;20483;-62
2024/01/10 07:45:52;;;;;;;12.07;8.60;;;-2.30;99.90;;;;;;5036924;28;20490;-62
2024/01/10 07:48:22;;;;;;;11.90;8.83;;;-2.30;99.90;;;;;;5037985;28;20466;-61
2024/01/10 07:50:50;;;;;;;11.87;8.87;;;-2.30;99.90;;;;;;5039503;28;22424;-62
2024/01/10 07:53:18;;;;;;;13.33;9.40;;;-2.30;99.90;;;;;;5036603;28;20589;-62
2024/01/10 07:55:46;;;;;;;11.23;9.00;;;-2.30;99.90;;;;;;5036344;28;20822;-62
2024/01/10 07:58:15;;;;;;;11.67;8.63;;;-2.30;99.90;;;;;;5037057;28;20479;-62
2024/01/10 08:00:45;;;;;;;12.17;9.57;;;-2.30;99.90;;;;;;5036781;28;20545;-61
2024/01/10 08:03:13;;;;;;;11.20;8.80;;;-2.30;99.90;;;;;;5037745;28;20482;-62
2024/01/10 08:05:41;;;;;;;10.63;8.80;;;-2.30;99.90;;;;;;5034570;28;20506;-62
2024/01/10 08:08:09;;;;;;;12.30;10.07;;;-2.20;99.90;;;;;;5036755;28;20469;-62
2024/01/10 08:10:37;;;;;;;12.23;9.80;;;-2.20;99.90;;;;;;5033213;28;20556;-62
2024/01/10 08:13:06;;;;;;;13.60;10.07;;;-2.20;99.90;;;;;;5035944;28;20995;-62
2024/01/10 08:15:35;;;;;;;11.60;8.80;;;-2.20;99.90;;;;;;5037273;28;21049;-60
2024/01/10 08:18:03;;;;;;;13.33;9.03;;;-2.20;99.90;;;;;;5038826;28;21078;-62
2024/01/10 08:20:32;;;;;;;9.93;8.67;;;-2.20;99.90;;;;;;5037577;28;20537;-62
2024/01/10 08:23:01;;;;;;;12.93;9.57;;;-2.10;99.90;;;;;;5033777;28;20513;-62
2024/01/10 08:25:29;;;;;;;12.37;9.27;;;-2.10;99.90;;;;;;5035102;28;20637;-62
2024/01/10 08:27:58;;;;;;;12.60;10.70;;;-2.10;99.90;;;;;;5036050;28;20466;-62
2024/01/10 08:30:26;;;;;;;13.57;10.00;;;-2.10;99.90;;;;;;5035549;28;20889;-62
2024/01/10 08:32:54;;;;;;;13.70;10.10;;;-2.10;99.90;;;;;;5039569;28;20458;-60
2024/01/10 08:35:22;;;;;;;15.20;10.67;;;-2.10;99.90;;;;;;5057348;28;20526;-61
2024/01/10 08:37:55;;;;;;;14.17;10.33;;;-2.00;99.90;;;;;;5056733;28;20472;-61
2024/01/10 08:40:25;;;;;;;13.10;9.20;;;-2.00;99.90;;;;;;5044379;28;20495;-61
2024/01/10 08:42:53;;;;;;;13.93;10.57;;;-2.00;99.90;;;;;;5037234;28;20537;-62
2024/01/10 08:45:21;;;;;;;12.27;9.40;;;-2.00;99.90;;;;;;5034718;28;20501;-61
2024/01/10 08:47:49;;;;;;;12.53;9.37;;;-2.10;99.90;;;;;;5036882;28;20845;-62
2024/01/10 08:50:17;;;;;;;15.53;10.13;;;-2.00;99.90;;;;;;5035432;28;20498;-61
2024/01/10 08:52:46;;;;;;;12.83;9.70;;;-2.00;99.90;;;;;;5035966;28;20483;-62
2024/01/10 08:55:14;;;;;;;16.90;11.53;;;-2.00;99.90;;;;;;5033437;28;20454;-62
2024/01/10 08:57:43;;;;;;;16.57;11.23;;;-2.00;99.90;;;;;;5037719;28;21373;-60
2024/01/10 09:00:15;;;;;;;15.13;10.67;;;-2.10;99.90;;;;;;5042491;28;20562;-62
2024/01/10 09:02:43;;;;;;;13.80;10.50;;;-2.00;99.90;;;;;;5051282;28;20490;-62
2024/01/10 09:05:11;;;;;;;13.40;10.63;;;-2.00;99.90;;;;;;5050192;28;20486;-62
2024/01/10 09:07:39;;;;;;;14.90;10.70;;;-2.00;99.90;;;;;;5051180;28;20470;-62
2024/01/10 09:10:08;;;;;;;11.97;9.33;;;-1.90;99.90;;;;;;5049256;28;20498;-62
2024/01/10 09:12:36;;;;;;;18.17;10.50;;;-1.90;99.90;;;;;;5041326;28;20486;-62
2024/01/10 09:15:08;;;;;;;15.30;10.90;;;-1.90;99.90;;;;;;5042417;28;20466;-62
2024/01/10 09:17:35;;;;;;;13.93;10.20;;;-1.80;99.90;;;;;;5043726;28;20466;-62
2024/01/10 09:20:03;;;;;;;13.40;10.07;;;-1.90;99.90;;;;;;5042320;28;20553;-62
2024/01/10 09:22:31;;;;;;;12.47;9.50;;;-1.80;99.90;;;;;;5040398;28;20487;-62
2024/01/10 09:25:03;;;;;;;14.33;10.30;;;-1.90;99.90;;;;;;5040440;28;20551;-61
2024/01/10 09:27:31;;;;;;;14.67;10.33;;;-1.90;99.90;;;;;;5036044;28;20475;-62
2024/01/10 09:29:59;;;;;;;12.33;9.27;;;-1.90;99.90;;;;;;5037100;28;21137;-62
2024/01/10 09:32:29;;;;;;;15.07;9.90;;;-1.90;99.90;;;;;;5035920;28;21000;-61
2024/01/10 09:34:58;;;;;;;12.97;9.50;;;-1.90;99.90;;;;;;5034762;28;20474;-62
2024/01/10 09:37:26;;;;;;;13.37;9.87;;;-1.90;99.90;;;;;;5034773;28;20828;-62
2024/01/10 09:39:54;;;;;;;12.30;9.77;;;-1.80;99.90;;;;;;5039391;28;20594;-61
2024/01/10 09:42:25;;;;;;;14.27;10.70;;;-1.80;99.90;;;;;;5038252;28;20553;-61
2024/01/10 09:44:53;;;;;;;16.07;10.90;;;-1.70;99.90;;;;;;5038648;28;20493;-62
2024/01/10 09:47:22;;;;;;;15.97;12.47;;;-1.80;99.90;;;;;;5039907;28;20467;-62
2024/01/10 09:49:51;;;;;;;14.93;11.30;;;-1.70;99.90;;;;;;5038320;28;20478;-61
2024/01/10 09:52:25;;;;;;;16.00;10.90;;;-1.70;99.90;;;;;;5040545;28;20487;-61
2024/01/10 09:54:56;;;;;;;16.17;11.47;;;-1.70;99.90;;;;;;5037093;28;20474;-62
2024/01/10 09:57:25;;;;;;;13.73;10.57;;;-1.60;99.90;;;;;;5038302;28;20471;-62
2024/01/10 09:59:54;;;;;;;14.63;10.63;;;-1.60;99.90;;;;;;5040317;28;20520;-62
2024/01/10 10:02:24;;;;;;;15.90;11.07;;;-1.70;99.90;;;;;;5032718;28;20521;-61
2024/01/10 10:05:03;;;;;;;17.77;11.27;;;-1.70;99.90;;;;;;5038103;28;20533;-61
2024/01/10 10:07:31;;;;;;;16.83;11.37;;;-1.70;99.90;;;;;;5038375;28;20502;-62
2024/01/10 10:09:59;;;;;;;13.83;11.27;;;-1.60;99.90;;;;;;5041210;28;20490;-62
2024/01/10 10:12:43;;;;;;;15.73;10.47;;;-1.60;99.90;;;;;;5038436;28;20479;-62
2024/01/10 10:15:16;;;;;;;15.40;10.80;;;-1.60;99.90;;;;;;5039723;28;20470;-62
2024/01/10 10:17:47;;;;;;;18.47;11.97;;;-1.60;99.90;;;;;;5037993;28;20549;-60
2024/01/10 10:20:21;;;;;;;16.37;11.63;;;-1.60;99.90;;;;;;5039745;28;20584;-62
2024/01/10 10:23:00;;;;;;;17.20;11.93;;;-1.70;99.90;;;;;;5034011;28;20494;-62
2024/01/10 10:25:31;;;;;;;18.07;11.73;;;-1.70;99.90;;;;;;5038174;28;20574;-62
2024/01/10 10:27:59;;;;;;;17.60;12.10;;;-1.70;99.90;;;;;;5037794;28;20525;-62
2024/01/10 10:30:28;;;;;;;21.20;12.97;;;-1.60;99.90;;;;;;5038881;28;21015;-62
2024/01/10 10:32:56;;;;;;;18.97;12.20;;;-1.50;99.90;;;;;;5036707;28;20911;-61
2024/01/10 10:35:26;;;;;;;19.70;13.00;;;-1.50;99.90;;;;;;5039519;28;21030;-62
2024/01/10 10:38:09;;;;;;;17.70;12.17;;;-1.40;99.90;;;;;;5038148;28;20475;-61
2024/01/10 10:40:38;;;;;;;18.50;12.87;;;-1.40;99.90;;;;;;5039580;28;20779;-62
2024/01/10 10:43:11;;;;;;;20.77;13.27;;;-1.30;99.90;;;;;;5035261;28;20475;-61
2024/01/10 10:45:40;;;;;;;17.47;12.20;;;-1.20;99.90;;;;;;5036056;28;20486;-62
2024/01/10 10:48:10;;;;;;;17.47;12.40;;;-1.20;99.90;;;;;;5037915;28;20574;-62
2024/01/10 10:50:39;;;;;;;16.53;11.83;;;-1.20;99.90;;;;;;5035468;28;20501;-62
2024/01/10 10:53:08;;;;;;;13.57;10.67;;;-1.10;99.90;;;;;;5036424;28;20490;-62
2024/01/10 10:55:38;;;;;;;13.97;10.60;;;-1.10;99.90;;;;;;5036215;28;20472;-62
2024/01/10 10:58:08;;;;;;;12.67;10.20;;;-1.10;99.90;;;;;;5037657;28;20562;-62
2024/01/10 11:00:41;;;;;;;15.10;10.57;;;-1.20;99.90;;;;;;5034586;28;20503;-61
2024/01/10 11:03:11;;;;;;;12.57;9.33;;;-1.20;99.90;;;;;;5037005;28;20493;-62
2024/01/10 11:05:42;;;;;;;13.50;9.80;;;-1.20;99.90;;;;;;5037578;28;20523;-62
2024/01/10 11:08:15;;;;;;;14.10;9.70;;;-1.20;99.90;;;;;;5036165;28;20544;-62
2024/01/10 11:10:45;;;;;;;11.30;9.40;;;-1.10;99.90;;;;;;5037022;28;20541;-62
2024/01/10 11:13:27;;;;;;;10.83;8.10;;;-1.00;99.90;;;;;;5037283;28;21042;-62
2024/01/10 11:16:32;;;;;;;11.60;8.60;;;-1.00;99.90;;;;;;5035075;28;20896;-62
2024/01/10 11:19:24;;;;;;;10.27;8.47;;;-1.00;99.90;;;;;;5032752;28;20557;-68
2024/01/10 11:22:07;;;;;;;10.77;9.30;;;-1.00;99.90;;;;;;5037393;28;20962;-62
2024/01/10 11:24:36;;;;;;;12.90;9.50;;;-1.00;99.90;;;;;;5038451;28;20488;-62
2024/01/10 11:27:13;;;;;;;11.17;9.00;;;-1.20;99.90;;;;;;5039767;28;20491;-62
2024/01/10 11:29:41;;;;;;;12.60;9.40;;;-1.20;99.90;;;;;;5039597;28;20493;-62
2024/01/10 11:32:15;;;;;;;12.53;8.90;;;-1.20;99.90;;;;;;5038095;28;20482;-62
2024/01/10 11:34:56;;;;;;;10.70;8.50;;;-1.10;99.90;;;;;;5039946;28;20476;-62
2024/01/10 11:37:38;;;;;;;10.97;8.70;;;-1.10;99.90;;;;;;5039010;28;20470;-62
2024/01/10 11:40:09;;;;;;;9.40;7.77;;;-1.00;99.90;;;;;;5040070;28;20577;-62
2024/01/10 11:42:42;;;;;;;9.23;7.90;;;-0.90;99.90;;;;;;5034640;28;20495;-62
2024/01/10 11:45:10;;;;;;;10.10;8.23;;;-1.00;99.90;;;;;;5039418;28;20547;-62
2024/01/10 11:47:40;;;;;;;9.23;7.23;;;-1.00;99.90;;;;;;5034535;28;20491;-62
2024/01/10 11:50:09;;;;;;;10.93;8.17;;;-1.10;99.90;;;;;;5040103;28;20493;-62
2024/01/10 11:52:39;;;;;;;10.07;8.40;;;-1.20;99.90;;;;;;5035782;28;20488;-62
2024/01/10 11:55:08;;;;;;;11.30;8.57;;;-1.30;99.90;;;;;;5032678;28;20470;-62
2024/01/10 11:57:37;;;;;;;12.23;8.50;;;-1.30;99.90;;;;;;5037070;28;20463;-62
2024/01/10 12:00:08;;;;;;;10.97;8.77;;;-1.30;99.90;;;;;;5037074;28;21042;-62
2024/01/10 12:02:36;;;;;;;10.43;8.13;;;-1.30;99.90;;;;;;5037351;28;20487;-61
2024/01/10 12:05:06;;;;;;;9.57;7.53;;;-1.30;99.90;;;;;;5039657;28;21053;-61
2024/01/10 12:07:35;;;;;;;9.13;8.00;;;-1.30;99.90;;;;;;5038157;28;20491;-62
2024/01/10 12:10:05;;;;;;;8.73;6.50;;;-1.20;99.90;;;;;;5035955;28;20574;-63
2024/01/10 12:12:33;;;;;;;8.43;6.20;;;-1.20;99.90;;;;;;5036479;28;20557;-63
2024/01/10 12:15:01;;;;;;;9.80;6.90;;;-1.10;99.90;;;;;;5038618;28;20576;-63
2024/01/10 12:17:29;;;;;;;8.10;6.20;;;-1.10;99.90;;;;;;5034687;28;21014;-62
2024/01/10 12:19:58;;;;;;;8.27;6.30;;;-1.10;99.90;;;;;;5035662;28;20486;-62
2024/01/10 12:22:26;;;;;;;7.50;6.30;;;-1.10;99.90;;;;;;5026051;28;20491;-63
2024/01/10 12:24:53;;;;;;;7.77;6.37;;;-1.10;99.90;;;;;;5031466;28;20528;-62
2024/01/10 12:27:23;;;;;;;9.80;7.03;;;-1.10;99.90;;;;;;5028750;28;20492;-63
2024/01/10 12:29:52;;;;;;;8.67;7.00;;;-1.10;99.90;;;;;;5026690;28;26603;-63
2024/01/10 12:32:22;;;;;;;8.07;6.40;;;-1.10;99.90;;;;;;5026195;28;20487;-63
2024/01/10 12:34:59;;;;;;;9.00;6.83;;;-1.10;99.90;;;;;;5028861;28;20470;-64
2024/01/10 12:37:27;;;;;;;6.93;5.90;;;-1.10;99.90;;;;;;5035349;28;20466;-64
2024/01/10 12:39:55;;;;;;;8.50;6.80;;;-1.10;99.90;;;;;;5037554;28;20499;-64
2024/01/10 12:42:25;;;;;;;8.40;6.50;;;-1.10;99.90;;;;;;5029563;28;20493;-64
2024/01/10 12:44:54;;;;;;;10.10;7.37;;;-1.00;99.90;;;;;;5028296;28;20563;-63